Terminal Aerodrome Forecast
Issued by NWS

Home | Current Version | Previous Version | Text Only | Print | Product List | Glossary On
Versions: 1 2 3 4 5 6 7 8 9 10 11 12 13 14 15 16 17 18 19 20 21 22 23 24 25 26 27 28 29 30 31 32 33 34 35 36 37 38
000
FTUS41 KRNK 231155 AAA
TAFBCB
TAF AMD
KBCB 231155Z 2312/2412 27004KT P6SM BKN024
     FM231500 31012G22KT P6SM BKN035
     FM231800 30010KT P6SM SCT035 BKN250
     FM240000 33005KT P6SM SKC=

USA.gov is the U.S. government's official web portal to all federal, state and local government web resources and services.